sensor_id;sensor_type;location;lat;lon;timestamp;P1;durP1;ratioP1;P2;durP2;ratioP2
78891;SDS011;68368;51.728;5.248;2024-01-15T00:14:14;3.00;;;1.00;;
78891;SDS011;68368;51.728;5.248;2024-01-15T00:19:36;3.70;;;0.70;;
78891;SDS011;68368;51.728;5.248;2024-01-15T00:24:24;3.50;;;0.60;;
78891;SDS011;68368;51.728;5.248;2024-01-15T00:27:02;2.90;;;1.00;;
78891;SDS011;68368;51.728;5.248;2024-01-15T00:29:09;2.60;;;0.80;;
78891;SDS011;68368;51.728;5.248;2024-01-15T00:31:17;3.10;;;1.00;;
78891;SDS011;68368;51.728;5.248;2024-01-15T00:33:26;1.90;;;0.60;;
78891;SDS011;68368;51.728;5.248;2024-01-15T00:37:36;2.80;;;1.00;;
78891;SDS011;68368;51.728;5.248;2024-01-15T00:39:42;3.70;;;0.90;;
78891;SDS011;68368;51.728;5.248;2024-01-15T00:41:45;4.80;;;1.40;;
78891;SDS011;68368;51.728;5.248;2024-01-15T00:43:49;3.20;;;1.00;;
78891;SDS011;68368;51.728;5.248;2024-01-15T00:45:53;3.50;;;0.90;;
78891;SDS011;68368;51.728;5.248;2024-01-15T00:47:56;4.40;;;1.10;;
78891;SDS011;68368;51.728;5.248;2024-01-15T00:50:00;4.10;;;0.90;;
78891;SDS011;68368;51.728;5.248;2024-01-15T00:52:13;2.80;;;0.80;;
78891;SDS011;68368;51.728;5.248;2024-01-15T00:54:16;3.30;;;0.90;;
78891;SDS011;68368;51.728;5.248;2024-01-15T00:56:21;2.10;;;0.90;;
78891;SDS011;68368;51.728;5.248;2024-01-15T00:58:25;2.00;;;1.00;;
78891;SDS011;68368;51.728;5.248;2024-01-15T01:00:28;4.10;;;1.10;;
78891;SDS011;68368;51.728;5.248;2024-01-15T01:02:32;5.60;;;0.90;;
78891;SDS011;68368;51.728;5.248;2024-01-15T01:04:37;4.10;;;1.60;;
78891;SDS011;68368;51.728;5.248;2024-01-15T01:06:42;3.90;;;1.50;;
78891;SDS011;68368;51.728;5.248;2024-01-15T01:08:51;3.40;;;0.90;;
78891;SDS011;68368;51.728;5.248;2024-01-15T01:10:55;5.70;;;1.40;;
78891;SDS011;68368;51.728;5.248;2024-01-15T01:12:59;4.90;;;1.20;;
78891;SDS011;68368;51.728;5.248;2024-01-15T01:15:07;3.80;;;1.10;;
78891;SDS011;68368;51.728;5.248;2024-01-15T01:17:12;4.90;;;1.10;;
78891;SDS011;68368;51.728;5.248;2024-01-15T01:19:17;7.40;;;1.30;;
78891;SDS011;68368;51.728;5.248;2024-01-15T01:21:22;4.20;;;1.10;;
78891;SDS011;68368;51.728;5.248;2024-01-15T01:23:28;3.00;;;0.80;;
78891;SDS011;68368;51.728;5.248;2024-01-15T01:25:33;4.90;;;1.00;;
78891;SDS011;68368;51.728;5.248;2024-01-15T01:27:36;2.20;;;0.90;;
78891;SDS011;68368;51.728;5.248;2024-01-15T01:29:40;6.50;;;1.10;;
78891;SDS011;68368;51.728;5.248;2024-01-15T01:31:51;4.00;;;0.80;;
78891;SDS011;68368;51.728;5.248;2024-01-15T01:33:58;3.50;;;0.90;;
78891;SDS011;68368;51.728;5.248;2024-01-15T01:36:01;5.60;;;1.20;;
78891;SDS011;68368;51.728;5.248;2024-01-15T01:38:10;6.10;;;1.10;;
78891;SDS011;68368;51.728;5.248;2024-01-15T01:40:15;3.50;;;0.70;;
78891;SDS011;68368;51.728;5.248;2024-01-15T01:42:20;3.00;;;0.80;;
78891;SDS011;68368;51.728;5.248;2024-01-15T01:44:23;2.90;;;0.70;;
78891;SDS011;68368;51.728;5.248;2024-01-15T01:46:27;3.70;;;1.20;;
78891;SDS011;68368;51.728;5.248;2024-01-15T01:48:30;2.00;;;0.80;;
78891;SDS011;68368;51.728;5.248;2024-01-15T01:50:34;2.50;;;0.80;;
78891;SDS011;68368;51.728;5.248;2024-01-15T01:52:37;7.60;;;0.90;;
78891;SDS011;68368;51.728;5.248;2024-01-15T01:54:42;3.40;;;0.90;;
78891;SDS011;68368;51.728;5.248;2024-01-15T01:56:45;2.70;;;0.90;;
78891;SDS011;68368;51.728;5.248;2024-01-15T01:58:51;2.50;;;0.90;;
78891;SDS011;68368;51.728;5.248;2024-01-15T02:00:57;5.50;;;1.10;;
78891;SDS011;68368;51.728;5.248;2024-01-15T02:03:00;3.60;;;1.20;;
78891;SDS011;68368;51.728;5.248;2024-01-15T02:05:04;2.10;;;0.60;;
78891;SDS011;68368;51.728;5.248;2024-01-15T02:07:10;2.50;;;1.20;;
78891;SDS011;68368;51.728;5.248;2024-01-15T02:09:15;3.70;;;1.20;;
78891;SDS011;68368;51.728;5.248;2024-01-15T02:11:18;3.10;;;0.80;;
78891;SDS011;68368;51.728;5.248;2024-01-15T02:13:21;5.00;;;1.50;;
78891;SDS011;68368;51.728;5.248;2024-01-15T02:15:24;3.80;;;1.00;;
78891;SDS011;68368;51.728;5.248;2024-01-15T02:17:27;4.50;;;1.00;;
78891;SDS011;68368;51.728;5.248;2024-01-15T02:19:31;3.90;;;0.90;;
78891;SDS011;68368;51.728;5.248;2024-01-15T02:21:34;4.40;;;1.20;;
78891;SDS011;68368;51.728;5.248;2024-01-15T02:23:37;3.50;;;1.00;;
78891;SDS011;68368;51.728;5.248;2024-01-15T02:25:41;4.50;;;1.00;;
78891;SDS011;68368;51.728;5.248;2024-01-15T02:27:45;1.60;;;0.80;;
78891;SDS011;68368;51.728;5.248;2024-01-15T02:29:50;6.60;;;1.60;;
78891;SDS011;68368;51.728;5.248;2024-01-15T02:31:54;3.40;;;1.40;;
78891;SDS011;68368;51.728;5.248;2024-01-15T02:34:01;9.00;;;1.30;;
78891;SDS011;68368;51.728;5.248;2024-01-15T02:36:05;5.70;;;1.20;;
78891;SDS011;68368;51.728;5.248;2024-01-15T02:38:10;4.10;;;1.10;;
78891;SDS011;68368;51.728;5.248;2024-01-15T02:40:13;7.30;;;1.10;;
78891;SDS011;68368;51.728;5.248;2024-01-15T02:42:16;4.40;;;1.00;;
78891;SDS011;68368;51.728;5.248;2024-01-15T02:44:19;1.80;;;1.10;;
78891;SDS011;68368;51.728;5.248;2024-01-15T02:46:23;5.30;;;1.00;;
78891;SDS011;68368;51.728;5.248;2024-01-15T02:48:28;4.10;;;0.80;;
78891;SDS011;68368;51.728;5.248;2024-01-15T02:50:31;2.00;;;0.80;;
78891;SDS011;68368;51.728;5.248;2024-01-15T02:52:35;8.90;;;1.40;;
78891;SDS011;68368;51.728;5.248;2024-01-15T02:54:38;2.80;;;0.80;;
78891;SDS011;68368;51.728;5.248;2024-01-15T02:56:41;4.50;;;0.80;;
78891;SDS011;68368;51.728;5.248;2024-01-15T02:58:45;6.20;;;0.90;;
78891;SDS011;68368;51.728;5.248;2024-01-15T03:00:47;6.90;;;0.90;;
78891;SDS011;68368;51.728;5.248;2024-01-15T03:02:51;7.50;;;1.10;;
78891;SDS011;68368;51.728;5.248;2024-01-15T03:04:55;2.30;;;0.80;;
78891;SDS011;68368;51.728;5.248;2024-01-15T03:07:00;6.50;;;1.30;;
78891;SDS011;68368;51.728;5.248;2024-01-15T03:09:03;4.30;;;0.70;;
78891;SDS011;68368;51.728;5.248;2024-01-15T03:11:06;6.30;;;1.50;;
78891;SDS011;68368;51.728;5.248;2024-01-15T03:13:09;2.90;;;0.70;;
78891;SDS011;68368;51.728;5.248;2024-01-15T03:15:13;6.50;;;1.10;;
78891;SDS011;68368;51.728;5.248;2024-01-15T03:17:16;7.60;;;1.10;;
78891;SDS011;68368;51.728;5.248;2024-01-15T03:19:18;3.50;;;0.90;;
78891;SDS011;68368;51.728;5.248;2024-01-15T03:21:22;4.00;;;0.90;;
78891;SDS011;68368;51.728;5.248;2024-01-15T03:23:24;5.90;;;0.80;;
78891;SDS011;68368;51.728;5.248;2024-01-15T03:25:27;3.20;;;0.70;;
78891;SDS011;68368;51.728;5.248;2024-01-15T03:27:30;6.30;;;0.90;;
78891;SDS011;68368;51.728;5.248;2024-01-15T03:29:33;3.60;;;0.70;;
78891;SDS011;68368;51.728;5.248;2024-01-15T03:31:36;2.10;;;0.70;;
78891;SDS011;68368;51.728;5.248;2024-01-15T03:33:39;4.00;;;0.90;;
78891;SDS011;68368;51.728;5.248;2024-01-15T03:35:44;3.60;;;1.10;;
78891;SDS011;68368;51.728;5.248;2024-01-15T03:37:47;6.50;;;1.00;;
78891;SDS011;68368;51.728;5.248;2024-01-15T03:39:50;2.10;;;0.80;;
78891;SDS011;68368;51.728;5.248;2024-01-15T03:41:53;4.00;;;0.80;;
78891;SDS011;68368;51.728;5.248;2024-01-15T03:43:56;3.90;;;0.70;;
78891;SDS011;68368;51.728;5.248;2024-01-15T03:46:01;5.40;;;1.10;;
78891;SDS011;68368;51.728;5.248;2024-01-15T03:48:06;10.90;;;1.30;;
78891;SDS011;68368;51.728;5.248;2024-01-15T03:50:10;5.70;;;1.00;;
78891;SDS011;68368;51.728;5.248;2024-01-15T03:52:14;3.70;;;0.80;;
78891;SDS011;68368;51.728;5.248;2024-01-15T03:54:17;4.10;;;0.90;;
78891;SDS011;68368;51.728;5.248;2024-01-15T03:56:20;8.30;;;1.80;;
78891;SDS011;68368;51.728;5.248;2024-01-15T03:58:22;2.70;;;0.60;;
78891;SDS011;68368;51.728;5.248;2024-01-15T04:00:28;6.00;;;1.40;;
78891;SDS011;68368;51.728;5.248;2024-01-15T04:02:32;3.60;;;0.90;;
78891;SDS011;68368;51.728;5.248;2024-01-15T04:04:35;6.60;;;1.30;;
78891;SDS011;68368;51.728;5.248;2024-01-15T04:06:37;7.60;;;1.30;;
78891;SDS011;68368;51.728;5.248;2024-01-15T04:08:40;7.00;;;1.00;;
78891;SDS011;68368;51.728;5.248;2024-01-15T04:10:43;4.60;;;1.20;;
78891;SDS011;68368;51.728;5.248;2024-01-15T04:12:46;3.60;;;1.10;;
78891;SDS011;68368;51.728;5.248;2024-01-15T04:14:49;4.00;;;0.90;;
78891;SDS011;68368;51.728;5.248;2024-01-15T04:16:52;6.80;;;1.10;;
78891;SDS011;68368;51.728;5.248;2024-01-15T04:18:55;5.70;;;0.90;;
78891;SDS011;68368;51.728;5.248;2024-01-15T04:20:58;9.40;;;1.40;;
78891;SDS011;68368;51.728;5.248;2024-01-15T04:23:01;5.20;;;0.90;;
78891;SDS011;68368;51.728;5.248;2024-01-15T04:25:06;2.60;;;0.70;;
78891;SDS011;68368;51.728;5.248;2024-01-15T04:27:10;5.10;;;1.00;;
78891;SDS011;68368;51.728;5.248;2024-01-15T04:29:15;3.60;;;0.80;;
78891;SDS011;68368;51.728;5.248;2024-01-15T04:31:37;6.30;;;1.10;;
78891;SDS011;68368;51.728;5.248;2024-01-15T04:33:58;3.30;;;0.70;;
78891;SDS011;68368;51.728;5.248;2024-01-15T04:36:12;2.00;;;0.60;;
78891;SDS011;68368;51.728;5.248;2024-01-15T04:38:26;2.40;;;0.50;;
78891;SDS011;68368;51.728;5.248;2024-01-15T04:41:17;1.40;;;0.40;;
78891;SDS011;68368;51.728;5.248;2024-01-15T04:43:20;1.90;;;0.40;;
78891;SDS011;68368;51.728;5.248;2024-01-15T04:45:24;3.20;;;0.40;;
78891;SDS011;68368;51.728;5.248;2024-01-15T04:47:28;2.90;;;0.50;;
78891;SDS011;68368;51.728;5.248;2024-01-15T04:49:33;1.40;;;0.60;;
78891;SDS011;68368;51.728;5.248;2024-01-15T04:51:37;2.50;;;0.40;;
78891;SDS011;68368;51.728;5.248;2024-01-15T04:53:40;2.90;;;0.40;;
78891;SDS011;68368;51.728;5.248;2024-01-15T04:55:47;2.20;;;0.40;;
78891;SDS011;68368;51.728;5.248;2024-01-15T04:57:50;3.30;;;0.50;;
78891;SDS011;68368;51.728;5.248;2024-01-15T04:59:53;1.80;;;0.70;;
78891;SDS011;68368;51.728;5.248;2024-01-15T05:02:07;1.80;;;0.40;;
78891;SDS011;68368;51.728;5.248;2024-01-15T05:04:10;1.30;;;0.40;;
78891;SDS011;68368;51.728;5.248;2024-01-15T05:06:14;1.40;;;0.40;;
78891;SDS011;68368;51.728;5.248;2024-01-15T05:08:17;0.80;;;0.40;;
78891;SDS011;68368;51.728;5.248;2024-01-15T05:10:20;1.00;;;0.30;;
78891;SDS011;68368;51.728;5.248;2024-01-15T05:12:25;3.40;;;0.70;;
78891;SDS011;68368;51.728;5.248;2024-01-15T05:14:28;0.90;;;0.30;;
78891;SDS011;68368;51.728;5.248;2024-01-15T05:16:34;2.80;;;0.70;;
78891;SDS011;68368;51.728;5.248;2024-01-15T05:18:37;0.70;;;0.30;;
78891;SDS011;68368;51.728;5.248;2024-01-15T05:20:40;1.10;;;0.40;;
78891;SDS011;68368;51.728;5.248;2024-01-15T05:22:44;1.20;;;0.50;;
78891;SDS011;68368;51.728;5.248;2024-01-15T05:24:48;3.30;;;0.50;;
78891;SDS011;68368;51.728;5.248;2024-01-15T05:26:53;2.10;;;0.80;;
78891;SDS011;68368;51.728;5.248;2024-01-15T05:28:56;2.00;;;0.40;;
78891;SDS011;68368;51.728;5.248;2024-01-15T05:31:00;2.30;;;0.60;;
78891;SDS011;68368;51.728;5.248;2024-01-15T05:33:05;1.60;;;0.40;;
78891;SDS011;68368;51.728;5.248;2024-01-15T05:35:11;2.30;;;0.50;;
78891;SDS011;68368;51.728;5.248;2024-01-15T05:37:15;0.50;;;0.30;;
78891;SDS011;68368;51.728;5.248;2024-01-15T05:39:18;2.40;;;0.60;;
78891;SDS011;68368;51.728;5.248;2024-01-15T05:41:22;1.80;;;0.40;;
78891;SDS011;68368;51.728;5.248;2024-01-15T05:43:26;0.90;;;0.30;;
78891;SDS011;68368;51.728;5.248;2024-01-15T05:45:30;1.60;;;0.30;;
78891;SDS011;68368;51.728;5.248;2024-01-15T05:47:33;1.60;;;0.40;;
78891;SDS011;68368;51.728;5.248;2024-01-15T05:49:39;0.40;;;0.30;;
78891;SDS011;68368;51.728;5.248;2024-01-15T05:51:47;0.90;;;0.40;;
78891;SDS011;68368;51.728;5.248;2024-01-15T05:54:32;1.00;;;0.50;;
78891;SDS011;68368;51.728;5.248;2024-01-15T05:56:55;1.00;;;0.70;;
78891;SDS011;68368;51.728;5.248;2024-01-15T05:59:26;1.40;;;0.30;;
78891;SDS011;68368;51.728;5.248;2024-01-15T06:01:56;0.90;;;0.30;;
78891;SDS011;68368;51.728;5.248;2024-01-15T06:04:09;1.20;;;0.30;;
78891;SDS011;68368;51.728;5.248;2024-01-15T06:06:18;1.10;;;0.60;;
78891;SDS011;68368;51.728;5.248;2024-01-15T06:08:32;1.20;;;0.40;;
78891;SDS011;68368;51.728;5.248;2024-01-15T06:10:36;1.10;;;0.50;;
78891;SDS011;68368;51.728;5.248;2024-01-15T06:12:39;2.50;;;0.40;;
78891;SDS011;68368;51.728;5.248;2024-01-15T06:14:42;3.50;;;0.50;;
78891;SDS011;68368;51.728;5.248;2024-01-15T06:16:46;1.00;;;0.60;;
78891;SDS011;68368;51.728;5.248;2024-01-15T06:18:50;2.70;;;0.40;;
78891;SDS011;68368;51.728;5.248;2024-01-15T06:20:54;2.10;;;0.70;;
78891;SDS011;68368;51.728;5.248;2024-01-15T06:23:00;2.30;;;0.60;;
78891;SDS011;68368;51.728;5.248;2024-01-15T06:25:08;1.50;;;0.60;;
78891;SDS011;68368;51.728;5.248;2024-01-15T06:27:13;1.20;;;0.60;;
78891;SDS011;68368;51.728;5.248;2024-01-15T06:29:18;1.30;;;0.70;;
78891;SDS011;68368;51.728;5.248;2024-01-15T06:31:25;1.80;;;0.80;;
78891;SDS011;68368;51.728;5.248;2024-01-15T06:33:31;1.10;;;0.60;;
78891;SDS011;68368;51.728;5.248;2024-01-15T06:35:37;2.70;;;0.90;;
78891;SDS011;68368;51.728;5.248;2024-01-15T06:37:40;2.30;;;0.70;;
78891;SDS011;68368;51.728;5.248;2024-01-15T06:39:49;1.10;;;0.90;;
78891;SDS011;68368;51.728;5.248;2024-01-15T06:42:01;2.30;;;1.30;;
78891;SDS011;68368;51.728;5.248;2024-01-15T06:44:17;2.10;;;1.10;;
78891;SDS011;68368;51.728;5.248;2024-01-15T06:46:24;2.20;;;1.30;;
78891;SDS011;68368;51.728;5.248;2024-01-15T06:48:34;3.30;;;1.20;;
78891;SDS011;68368;51.728;5.248;2024-01-15T06:50:51;2.20;;;1.00;;
78891;SDS011;68368;51.728;5.248;2024-01-15T06:52:58;1.20;;;1.00;;
78891;SDS011;68368;51.728;5.248;2024-01-15T06:55:03;3.30;;;1.50;;
78891;SDS011;68368;51.728;5.248;2024-01-15T06:57:07;2.50;;;1.80;;
78891;SDS011;68368;51.728;5.248;2024-01-15T06:59:11;3.90;;;1.70;;
78891;SDS011;68368;51.728;5.248;2024-01-15T07:01:15;1.70;;;1.50;;
78891;SDS011;68368;51.728;5.248;2024-01-15T07:03:18;2.20;;;1.40;;
78891;SDS011;68368;51.728;5.248;2024-01-15T07:05:29;2.00;;;1.50;;
78891;SDS011;68368;51.728;5.248;2024-01-15T07:07:32;2.90;;;1.40;;
78891;SDS011;68368;51.728;5.248;2024-01-15T07:09:35;2.90;;;1.90;;
78891;SDS011;68368;51.728;5.248;2024-01-15T07:11:38;2.50;;;1.60;;
78891;SDS011;68368;51.728;5.248;2024-01-15T07:13:47;3.60;;;1.90;;
78891;SDS011;68368;51.728;5.248;2024-01-15T07:15:58;2.60;;;1.70;;
78891;SDS011;68368;51.728;5.248;2024-01-15T07:18:12;2.60;;;1.60;;
78891;SDS011;68368;51.728;5.248;2024-01-15T07:20:15;2.80;;;1.40;;
78891;SDS011;68368;51.728;5.248;2024-01-15T07:22:19;3.20;;;1.50;;
78891;SDS011;68368;51.728;5.248;2024-01-15T07:24:26;1.80;;;1.10;;
78891;SDS011;68368;51.728;5.248;2024-01-15T07:26:31;3.20;;;1.50;;
78891;SDS011;68368;51.728;5.248;2024-01-15T07:28:35;2.00;;;1.20;;
78891;SDS011;68368;51.728;5.248;2024-01-15T07:30:39;3.30;;;1.20;;
78891;SDS011;68368;51.728;5.248;2024-01-15T07:32:45;2.30;;;1.20;;
78891;SDS011;68368;51.728;5.248;2024-01-15T07:34:49;1.30;;;1.10;;
78891;SDS011;68368;51.728;5.248;2024-01-15T07:36:53;1.50;;;0.80;;
78891;SDS011;68368;51.728;5.248;2024-01-15T07:38:57;1.80;;;1.00;;
78891;SDS011;68368;51.728;5.248;2024-01-15T07:41:01;1.50;;;0.80;;
78891;SDS011;68368;51.728;5.248;2024-01-15T07:43:06;1.50;;;1.10;;
78891;SDS011;68368;51.728;5.248;2024-01-15T07:45:10;1.30;;;0.80;;
78891;SDS011;68368;51.728;5.248;2024-01-15T07:47:17;1.50;;;1.00;;
78891;SDS011;68368;51.728;5.248;2024-01-15T07:49:21;2.70;;;1.10;;
78891;SDS011;68368;51.728;5.248;2024-01-15T07:51:25;1.80;;;0.90;;
78891;SDS011;68368;51.728;5.248;2024-01-15T07:53:29;1.90;;;1.00;;
78891;SDS011;68368;51.728;5.248;2024-01-15T07:55:33;1.90;;;0.90;;
78891;SDS011;68368;51.728;5.248;2024-01-15T07:57:37;2.50;;;1.20;;
78891;SDS011;68368;51.728;5.248;2024-01-15T07:59:41;3.40;;;1.40;;
78891;SDS011;68368;51.728;5.248;2024-01-15T08:01:48;1.40;;;1.10;;
78891;SDS011;68368;51.728;5.248;2024-01-15T08:03:54;1.80;;;0.80;;
78891;SDS011;68368;51.728;5.248;2024-01-15T08:05:58;0.90;;;0.60;;
78891;SDS011;68368;51.728;5.248;2024-01-15T08:08:10;0.70;;;0.40;;
78891;SDS011;68368;51.728;5.248;2024-01-15T08:10:14;1.40;;;0.70;;
78891;SDS011;68368;51.728;5.248;2024-01-15T08:12:17;1.80;;;0.60;;
78891;SDS011;68368;51.728;5.248;2024-01-15T08:14:21;1.30;;;0.60;;
78891;SDS011;68368;51.728;5.248;2024-01-15T08:16:27;1.00;;;0.60;;
78891;SDS011;68368;51.728;5.248;2024-01-15T08:18:31;2.50;;;0.80;;
78891;SDS011;68368;51.728;5.248;2024-01-15T08:20:40;1.40;;;0.50;;
78891;SDS011;68368;51.728;5.248;2024-01-15T08:22:47;0.80;;;0.50;;
78891;SDS011;68368;51.728;5.248;2024-01-15T08:24:50;0.90;;;0.60;;
78891;SDS011;68368;51.728;5.248;2024-01-15T08:26:56;2.00;;;1.10;;
78891;SDS011;68368;51.728;5.248;2024-01-15T08:29:06;1.40;;;0.80;;
78891;SDS011;68368;51.728;5.248;2024-01-15T08:33:22;2.50;;;1.10;;
78891;SDS011;68368;51.728;5.248;2024-01-15T08:35:26;2.30;;;1.20;;
78891;SDS011;68368;51.728;5.248;2024-01-15T08:37:34;3.50;;;1.10;;
78891;SDS011;68368;51.728;5.248;2024-01-15T08:39:39;1.90;;;1.00;;
78891;SDS011;68368;51.728;5.248;2024-01-15T08:41:45;4.80;;;1.40;;
78891;SDS011;68368;51.728;5.248;2024-01-15T08:44:09;1.20;;;0.90;;
78891;SDS011;68368;51.728;5.248;2024-01-15T08:46:12;2.40;;;1.90;;
78891;SDS011;68368;51.728;5.248;2024-01-15T08:48:16;2.80;;;2.00;;
78891;SDS011;68368;51.728;5.248;2024-01-15T08:50:25;3.40;;;2.00;;
78891;SDS011;68368;51.728;5.248;2024-01-15T08:52:28;3.20;;;1.60;;
78891;SDS011;68368;51.728;5.248;2024-01-15T08:54:37;3.00;;;1.30;;
78891;SDS011;68368;51.728;5.248;2024-01-15T08:57:07;3.40;;;1.50;;
78891;SDS011;68368;51.728;5.248;2024-01-15T08:59:19;2.80;;;1.60;;
78891;SDS011;68368;51.728;5.248;2024-01-15T09:01:27;3.40;;;1.80;;
78891;SDS011;68368;51.728;5.248;2024-01-15T09:03:37;1.80;;;1.40;;
78891;SDS011;68368;51.728;5.248;2024-01-15T09:05:40;2.60;;;1.40;;
78891;SDS011;68368;51.728;5.248;2024-01-15T09:07:45;4.70;;;1.40;;
78891;SDS011;68368;51.728;5.248;2024-01-15T09:09:54;1.50;;;1.20;;
78891;SDS011;68368;51.728;5.248;2024-01-15T09:11:57;2.20;;;1.20;;
78891;SDS011;68368;51.728;5.248;2024-01-15T09:14:01;2.00;;;1.30;;
78891;SDS011;68368;51.728;5.248;2024-01-15T09:16:12;4.20;;;1.20;;
78891;SDS011;68368;51.728;5.248;2024-01-15T09:18:18;5.10;;;1.10;;
78891;SDS011;68368;51.728;5.248;2024-01-15T09:20:28;2.10;;;0.90;;
78891;SDS011;68368;51.728;5.248;2024-01-15T09:22:32;3.60;;;1.20;;
78891;SDS011;68368;51.728;5.248;2024-01-15T09:24:36;1.20;;;0.70;;
78891;SDS011;68368;51.728;5.248;2024-01-15T09:26:53;3.80;;;1.00;;
78891;SDS011;68368;51.728;5.248;2024-01-15T09:28:58;6.00;;;0.80;;
78891;SDS011;68368;51.728;5.248;2024-01-15T09:31:02;3.00;;;1.10;;
78891;SDS011;68368;51.728;5.248;2024-01-15T09:33:07;2.60;;;0.70;;
78891;SDS011;68368;51.728;5.248;2024-01-15T09:35:20;3.60;;;0.60;;
78891;SDS011;68368;51.728;5.248;2024-01-15T09:37:35;2.20;;;0.90;;
78891;SDS011;68368;51.728;5.248;2024-01-15T09:39:52;3.20;;;0.70;;
78891;SDS011;68368;51.728;5.248;2024-01-15T09:41:58;1.20;;;0.50;;
78891;SDS011;68368;51.728;5.248;2024-01-15T09:44:04;4.20;;;0.90;;
78891;SDS011;68368;51.728;5.248;2024-01-15T09:46:13;3.30;;;0.70;;
78891;SDS011;68368;51.728;5.248;2024-01-15T09:48:17;3.30;;;0.70;;
78891;SDS011;68368;51.728;5.248;2024-01-15T09:50:24;3.00;;;0.70;;
78891;SDS011;68368;51.728;5.248;2024-01-15T09:52:32;2.70;;;0.60;;
78891;SDS011;68368;51.728;5.248;2024-01-15T09:54:38;5.00;;;0.60;;
78891;SDS011;68368;51.728;5.248;2024-01-15T09:56:45;4.60;;;1.10;;
78891;SDS011;68368;51.728;5.248;2024-01-15T09:58:52;2.10;;;0.50;;
78891;SDS011;68368;51.728;5.248;2024-01-15T10:00:57;2.80;;;0.60;;
78891;SDS011;68368;51.728;5.248;2024-01-15T10:03:04;2.90;;;0.70;;
78891;SDS011;68368;51.728;5.248;2024-01-15T10:05:09;2.10;;;1.00;;
78891;SDS011;68368;51.728;5.248;2024-01-15T10:07:13;3.20;;;0.60;;
78891;SDS011;68368;51.728;5.248;2024-01-15T10:09:26;1.40;;;0.50;;
78891;SDS011;68368;51.728;5.248;2024-01-15T10:11:29;2.70;;;0.70;;
78891;SDS011;68368;51.728;5.248;2024-01-15T10:13:33;1.80;;;0.60;;
78891;SDS011;68368;51.728;5.248;2024-01-15T10:15:38;1.50;;;0.40;;
78891;SDS011;68368;51.728;5.248;2024-01-15T10:17:43;1.70;;;0.30;;
78891;SDS011;68368;51.728;5.248;2024-01-15T10:19:47;1.40;;;0.60;;
78891;SDS011;68368;51.728;5.248;2024-01-15T10:21:50;2.00;;;0.50;;
78891;SDS011;68368;51.728;5.248;2024-01-15T10:23:56;1.40;;;0.30;;
78891;SDS011;68368;51.728;5.248;2024-01-15T10:26:01;1.60;;;0.40;;
78891;SDS011;68368;51.728;5.248;2024-01-15T10:28:06;2.30;;;0.70;;
78891;SDS011;68368;51.728;5.248;2024-01-15T10:30:13;0.90;;;0.30;;
78891;SDS011;68368;51.728;5.248;2024-01-15T10:32:17;1.30;;;0.30;;
78891;SDS011;68368;51.728;5.248;2024-01-15T10:34:20;1.30;;;0.50;;
78891;SDS011;68368;51.728;5.248;2024-01-15T10:36:25;1.10;;;0.40;;
78891;SDS011;68368;51.728;5.248;2024-01-15T10:38:29;5.70;;;0.60;;
78891;SDS011;68368;51.728;5.248;2024-01-15T10:40:33;2.90;;;0.40;;
78891;SDS011;68368;51.728;5.248;2024-01-15T10:42:38;2.30;;;0.60;;
78891;SDS011;68368;51.728;5.248;2024-01-15T10:44:42;0.90;;;0.20;;
78891;SDS011;68368;51.728;5.248;2024-01-15T10:46:48;2.20;;;0.30;;
78891;SDS011;68368;51.728;5.248;2024-01-15T10:48:51;1.40;;;0.40;;
78891;SDS011;68368;51.728;5.248;2024-01-15T10:50:56;1.50;;;0.40;;
78891;SDS011;68368;51.728;5.248;2024-01-15T10:53:00;2.10;;;0.40;;
78891;SDS011;68368;51.728;5.248;2024-01-15T10:55:05;3.70;;;0.80;;
78891;SDS011;68368;51.728;5.248;2024-01-15T10:57:11;3.80;;;0.70;;
78891;SDS011;68368;51.728;5.248;2024-01-15T10:59:20;3.30;;;0.70;;
78891;SDS011;68368;51.728;5.248;2024-01-15T11:01:25;3.00;;;0.70;;
78891;SDS011;68368;51.728;5.248;2024-01-15T11:03:30;4.80;;;0.90;;
78891;SDS011;68368;51.728;5.248;2024-01-15T11:05:35;3.40;;;0.80;;
78891;SDS011;68368;51.728;5.248;2024-01-15T11:07:40;5.40;;;1.00;;
78891;SDS011;68368;51.728;5.248;2024-01-15T11:09:44;3.80;;;0.90;;
78891;SDS011;68368;51.728;5.248;2024-01-15T11:11:50;2.50;;;0.80;;
78891;SDS011;68368;51.728;5.248;2024-01-15T11:13:57;5.20;;;0.80;;
78891;SDS011;68368;51.728;5.248;2024-01-15T11:16:02;2.90;;;0.80;;
78891;SDS011;68368;51.728;5.248;2024-01-15T11:18:07;2.20;;;0.60;;
78891;SDS011;68368;51.728;5.248;2024-01-15T11:20:11;2.10;;;0.70;;
78891;SDS011;68368;51.728;5.248;2024-01-15T11:25:01;1.30;;;0.50;;
78891;SDS011;68368;51.728;5.248;2024-01-15T11:27:06;0.80;;;0.40;;
78891;SDS011;68368;51.728;5.248;2024-01-15T11:29:28;2.40;;;0.60;;
78891;SDS011;68368;51.728;5.248;2024-01-15T11:31:57;2.70;;;0.40;;
78891;SDS011;68368;51.728;5.248;2024-01-15T11:34:04;1.90;;;0.60;;
78891;SDS011;68368;51.728;5.248;2024-01-15T11:36:07;1.40;;;0.70;;
78891;SDS011;68368;51.728;5.248;2024-01-15T11:38:12;2.20;;;0.40;;
78891;SDS011;68368;51.728;5.248;2024-01-15T11:40:39;2.80;;;0.60;;
78891;SDS011;68368;51.728;5.248;2024-01-15T11:42:43;3.10;;;0.90;;
78891;SDS011;68368;51.728;5.248;2024-01-15T11:44:47;2.50;;;0.60;;
78891;SDS011;68368;51.728;5.248;2024-01-15T11:46:58;2.80;;;0.50;;
78891;SDS011;68368;51.728;5.248;2024-01-15T11:49:04;1.70;;;0.30;;
78891;SDS011;68368;51.728;5.248;2024-01-15T11:51:09;1.20;;;0.60;;
78891;SDS011;68368;51.728;5.248;2024-01-15T11:53:31;2.40;;;0.60;;
78891;SDS011;68368;51.728;5.248;2024-01-15T11:56:06;1.70;;;0.50;;
78891;SDS011;68368;51.728;5.248;2024-01-15T12:00:20;0.80;;;0.50;;
78891;SDS011;68368;51.728;5.248;2024-01-15T12:02:26;2.10;;;0.60;;
78891;SDS011;68368;51.728;5.248;2024-01-15T12:04:29;2.10;;;0.50;;
78891;SDS011;68368;51.728;5.248;2024-01-15T12:06:32;1.30;;;0.50;;
78891;SDS011;68368;51.728;5.248;2024-01-15T12:08:36;2.00;;;0.50;;
78891;SDS011;68368;51.728;5.248;2024-01-15T12:10:39;2.20;;;0.80;;
78891;SDS011;68368;51.728;5.248;2024-01-15T12:12:56;2.60;;;0.60;;
78891;SDS011;68368;51.728;5.248;2024-01-15T12:15:01;2.50;;;0.70;;
78891;SDS011;68368;51.728;5.248;2024-01-15T12:17:05;2.40;;;0.80;;
78891;SDS011;68368;51.728;5.248;2024-01-15T12:19:11;1.40;;;0.40;;
78891;SDS011;68368;51.728;5.248;2024-01-15T12:23:17;1.60;;;0.60;;
78891;SDS011;68368;51.728;5.248;2024-01-15T12:25:21;0.50;;;0.40;;
78891;SDS011;68368;51.728;5.248;2024-01-15T12:27:25;0.80;;;0.30;;
78891;SDS011;68368;51.728;5.248;2024-01-15T12:29:28;1.90;;;0.50;;
78891;SDS011;68368;51.728;5.248;2024-01-15T12:31:34;1.30;;;0.70;;
78891;SDS011;68368;51.728;5.248;2024-01-15T12:33:40;0.70;;;0.40;;
78891;SDS011;68368;51.728;5.248;2024-01-15T12:35:43;1.20;;;0.40;;
78891;SDS011;68368;51.728;5.248;2024-01-15T12:37:47;1.50;;;0.90;;
78891;SDS011;68368;51.728;5.248;2024-01-15T12:39:51;1.10;;;0.50;;
78891;SDS011;68368;51.728;5.248;2024-01-15T12:41:55;2.60;;;0.40;;
78891;SDS011;68368;51.728;5.248;2024-01-15T12:43:59;3.40;;;0.80;;
78891;SDS011;68368;51.728;5.248;2024-01-15T12:46:03;3.30;;;0.70;;
78891;SDS011;68368;51.728;5.248;2024-01-15T12:48:07;1.30;;;0.50;;
78891;SDS011;68368;51.728;5.248;2024-01-15T12:50:11;2.20;;;0.40;;
78891;SDS011;68368;51.728;5.248;2024-01-15T12:52:15;1.60;;;0.50;;
78891;SDS011;68368;51.728;5.248;2024-01-15T12:54:21;4.00;;;0.90;;
78891;SDS011;68368;51.728;5.248;2024-01-15T12:56:24;1.60;;;0.50;;
78891;SDS011;68368;51.728;5.248;2024-01-15T12:58:27;1.80;;;0.70;;
78891;SDS011;68368;51.728;5.248;2024-01-15T13:00:30;3.00;;;1.20;;
78891;SDS011;68368;51.728;5.248;2024-01-15T13:02:33;4.90;;;0.90;;
78891;SDS011;68368;51.728;5.248;2024-01-15T13:04:37;2.40;;;0.70;;
78891;SDS011;68368;51.728;5.248;2024-01-15T13:06:41;2.60;;;0.70;;
78891;SDS011;68368;51.728;5.248;2024-01-15T13:08:44;1.30;;;0.60;;
78891;SDS011;68368;51.728;5.248;2024-01-15T13:10:48;3.90;;;0.80;;